Time;durP1;ratioP1;P1;durP2;ratioP2;P2;SDS_P1;SDS_P2;PMS_P1;PMS_P2;Temp;Humidity;BMP_temperature;BMP_pressure;BME280_temperature;BME280_humidity;BME280_pressure;Samples;Min_cycle;Max_cycle;Signal;HPM_P1;HPM_P2
2022/03/03 00:02:09;;;;;;;;;;;4.00;99.90;;;;;;10340278;28;86173;-47
2022/03/03 00:07:10;;;;;;;;;;;3.90;99.90;;;;;;10330718;28;84942;-46
2022/03/03 00:12:11;;;;;;;;;;;3.90;99.90;;;;;;10348002;28;85708;-48
2022/03/03 00:17:12;;;;;;;;;;;3.80;99.90;;;;;;10372594;28;84933;-51
2022/03/03 00:22:12;;;;;;;;;;;3.80;99.90;;;;;;10358079;28;84959;-45
2022/03/03 00:27:13;;;;;;;;;;;3.80;99.90;;;;;;10330685;28;84828;-46
2022/03/03 00:32:13;;;;;;;;;;;3.80;99.90;;;;;;10346692;28;84042;-45
2022/03/03 00:37:14;;;;;;;;;;;3.70;99.90;;;;;;10350099;28;86667;-46
2022/03/03 00:42:15;;;;;;;;;;;3.70;99.90;;;;;;10370546;28;84971;-50
2022/03/03 00:47:15;;;;;;;;;;;3.70;99.90;;;;;;10339221;28;84796;-47
2022/03/03 00:52:16;;;;;;;;;;;3.60;99.90;;;;;;10368837;28;84860;-47
2022/03/03 00:57:16;;;;;;;;;;;3.60;99.90;;;;;;10369265;28;85760;-48
2022/03/03 01:02:17;;;;;;;;;;;3.60;99.90;;;;;;10366371;28;85192;-47
2022/03/03 01:07:17;;;;;;;;;;;3.60;99.90;;;;;;10370955;28;85094;-46
2022/03/03 01:12:18;;;;;;;;;;;3.60;99.90;;;;;;10371894;28;85032;-47
2022/03/03 01:17:19;;;;;;;;;;;3.50;99.90;;;;;;10334838;28;85716;-49
2022/03/03 01:22:20;;;;;;;;;;;3.50;99.90;;;;;;10371763;28;84889;-46
2022/03/03 01:27:20;;;;;;;;;;;3.50;99.90;;;;;;10372694;28;84876;-47
2022/03/03 01:32:21;;;;;;;;;;;3.40;99.90;;;;;;10374663;28;84282;-48
2022/03/03 01:37:21;;;;;;;;;;;3.40;99.90;;;;;;10330014;28;84939;-50
2022/03/03 01:42:22;;;;;;;;;;;3.30;99.90;;;;;;10331335;28;83987;-47
2022/03/03 01:47:24;;;;;;;;;;;3.30;99.90;;;;;;10328178;28;84134;-47
2022/03/03 01:52:25;;;;;;;;;;;3.30;99.90;;;;;;10347147;28;84134;-47
2022/03/03 01:57:26;;;;;;;;;;;3.30;99.90;;;;;;10369431;28;84762;-46
2022/03/03 02:02:27;;;;;;;;;;;3.20;99.90;;;;;;10351155;28;84962;-47
2022/03/03 02:07:27;;;;;;;;;;;3.20;99.90;;;;;;10327309;28;84018;-47
2022/03/03 02:12:28;;;;;;;;;;;3.10;99.90;;;;;;10346461;28;84133;-48
2022/03/03 02:17:29;;;;;;;;;;;3.20;99.90;;;;;;10368374;28;85128;-46
2022/03/03 02:22:32;;;;;;;;;;;3.10;99.90;;;;;;10350522;28;83986;-48
2022/03/03 02:27:33;;;;;;;;;;;3.00;1.00;;;;;;10326579;28;84264;-45
2022/03/03 02:32:34;;;;;;;;;;;3.00;1.00;;;;;;10346191;28;84837;-48
2022/03/03 02:37:35;;;;;;;;;;;2.90;1.00;;;;;;10346773;28;84965;-49
2022/03/03 02:42:36;;;;;;;;;;;2.90;1.00;;;;;;10346368;28;85135;-46
2022/03/03 02:47:40;;;;;;;;;;;2.90;1.00;;;;;;10367447;28;84110;-48
2022/03/03 02:52:41;;;;;;;;;;;2.80;1.00;;;;;;10348333;28;84569;-46
2022/03/03 02:57:54;;;;;;;;;;;2.80;1.00;;;;;;10308409;28;86878;-48
2022/03/03 03:02:55;;;;;;;;;;;2.80;1.00;;;;;;10348990;28;84420;-46
2022/03/03 03:07:55;;;;;;;;;;;2.70;1.00;;;;;;10366170;28;84304;-47
2022/03/03 03:12:56;;;;;;;;;;;2.70;1.00;;;;;;10344719;28;84765;-48
2022/03/03 03:18:08;;;;;;;;;;;2.60;1.00;;;;;;10325315;28;84911;-49
2022/03/03 03:23:09;;;;;;;;;;;2.50;1.00;;;;;;10349518;28;84452;-50
2022/03/03 03:28:10;;;;;;;;;;;2.40;1.00;;;;;;10365843;28;85441;-48
2022/03/03 03:33:11;;;;;;;;;;;2.30;1.00;;;;;;10342375;28;84729;-49
2022/03/03 03:38:12;;;;;;;;;;;2.20;1.00;;;;;;10324982;28;84214;-46
2022/03/03 03:43:12;;;;;;;;;;;2.30;1.00;;;;;;10344651;28;84441;-48
2022/03/03 03:48:13;;;;;;;;;;;2.20;1.00;;;;;;10349347;28;84985;-47
2022/03/03 03:53:14;;;;;;;;;;;2.20;1.00;;;;;;10366867;28;84961;-47
2022/03/03 03:58:14;;;;;;;;;;;2.20;1.00;;;;;;10359843;28;84754;-45
2022/03/03 04:03:15;;;;;;;;;;;2.20;1.00;;;;;;10366825;28;84766;-47
2022/03/03 04:08:15;;;;;;;;;;;2.20;1.00;;;;;;10443190;22;84939;-43
2022/03/03 04:13:16;;;;;;;;;;;2.10;1.00;;;;;;10490489;27;84095;-43
2022/03/03 04:18:16;;;;;;;;;;;2.10;1.00;;;;;;10470087;27;84007;-43
2022/03/03 04:23:19;;;;;;;;;;;2.00;1.00;;;;;;10447597;28;84864;-43
2022/03/03 04:28:19;;;;;;;;;;;1.90;1.00;;;;;;10446496;28;84853;-43
2022/03/03 04:33:20;;;;;;;;;;;1.80;1.00;;;;;;10438153;28;84937;-42
2022/03/03 04:38:20;;;;;;;;;;;1.80;1.00;;;;;;10436067;27;84191;-43
2022/03/03 04:43:21;;;;;;;;;;;1.70;1.00;;;;;;10454191;28;84758;-42
2022/03/03 04:48:29;;;;;;;;;;;1.80;1.00;;;;;;10453127;27;84194;-42
2022/03/03 04:53:29;;;;;;;;;;;1.70;1.00;;;;;;10454198;28;84945;-47
2022/03/03 04:58:30;;;;;;;;;;;1.70;1.00;;;;;;10453407;27;84641;-43
2022/03/03 05:03:31;;;;;;;;;;;1.70;1.00;;;;;;10451398;28;84676;-43
2022/03/03 05:08:31;;;;;;;;;;;1.70;1.00;;;;;;10452667;27;84862;-43
2022/03/03 05:13:32;;;;;;;;;;;1.70;1.00;;;;;;10430982;28;86865;-42
2022/03/03 05:18:35;;;;;;;;;;;1.50;1.00;;;;;;10450470;27;105396;-41
2022/03/03 05:23:35;;;;;;;;;;;1.50;1.00;;;;;;10452189;28;84092;-43
2022/03/03 05:28:36;;;;;;;;;;;1.50;1.00;;;;;;10451896;27;84745;-41
2022/03/03 05:33:36;;;;;;;;;;;1.50;1.00;;;;;;10452443;28;84953;-43
2022/03/03 05:38:37;;;;;;;;;;;1.50;1.00;;;;;;10451394;27;84004;-42
2022/03/03 05:43:38;;;;;;;;;;;1.60;1.00;;;;;;10431043;27;84991;-43
2022/03/03 05:48:38;;;;;;;;;;;1.60;1.00;;;;;;10451155;28;84238;-42
2022/03/03 05:53:39;;;;;;;;;;;1.60;1.00;;;;;;10452149;28;84771;-44
2022/03/03 05:58:47;;;;;;;;;;;1.60;1.00;;;;;;10451389;28;83998;-42
2022/03/03 06:03:48;;;;;;;;;;;1.60;1.00;;;;;;10452301;28;84590;-44
2022/03/03 06:09:03;;;;;;;;;;;1.60;1.00;;;;;;10452143;28;86363;-44
2022/03/03 06:14:07;;;;;;;;;;;1.60;1.00;;;;;;10448950;28;86651;-44
2022/03/03 06:19:08;;;;;;;;;;;1.70;1.00;;;;;;10449979;27;84128;-47
2022/03/03 06:24:09;;;;;;;;;;;1.70;1.00;;;;;;10452677;28;84879;-43
2022/03/03 06:29:09;;;;;;;;;;;1.70;1.00;;;;;;10448521;27;84661;-43
2022/03/03 06:34:10;;;;;;;;;;;1.60;1.00;;;;;;10450805;28;84851;-42
2022/03/03 06:44:08;;;;;;;;;;;1.70;1.00;;;;;;10518484;27;83866;-42
2022/03/03 06:49:08;;;;;;;;;;;1.80;1.00;;;;;;10514524;27;83965;-43
2022/03/03 06:54:13;;;;;;;;;;;1.90;1.00;;;;;;10559854;22;84109;-47
2022/03/03 06:59:15;;;;;;;;;;;1.90;1.00;;;;;;10553385;27;83823;-51
2022/03/03 07:04:17;;;;;;;;;;;2.00;1.00;;;;;;10529528;27;83101;-49
2022/03/03 07:09:19;;;;;;;;;;;2.10;1.00;;;;;;10495819;27;84622;-51
2022/03/03 07:14:19;;;;;;;;;;;2.20;1.00;;;;;;10515759;27;83360;-53
2022/03/03 07:19:43;;;;;;;;;;;2.30;1.00;;;;;;10484733;27;83081;-52
2022/03/03 07:24:44;;;;;;;;;;;2.50;1.00;;;;;;10475398;27;82989;-57
2022/03/03 07:29:46;;;;;;;;;;;2.60;1.00;;;;;;10525854;27;82993;-53
2022/03/03 07:34:50;;;;;;;;;;;2.90;1.00;;;;;;10515913;27;83161;-52
2022/03/03 07:39:52;;;;;;;;;;;3.60;1.00;;;;;;10486750;27;83200;-59
2022/03/03 07:44:54;;;;;;;;;;;4.50;99.90;;;;;;10528950;27;83419;-52
2022/03/03 07:49:55;;;;;;;;;;;5.30;99.90;;;;;;10505612;27;82919;-50
2022/03/03 07:54:56;;;;;;;;;;;6.10;1.00;;;;;;10469551;27;84086;-55
2022/03/03 07:59:59;;;;;;;;;;;6.90;1.00;;;;;;10483415;27;83097;-54
2022/03/03 08:05:01;;;;;;;;;;;7.20;99.90;;;;;;10497236;27;83001;-54
2022/03/03 08:10:02;;;;;;;;;;;8.10;1.00;;;;;;10487358;27;83205;-52
2022/03/03 08:15:03;;;;;;;;;;;8.60;1.00;;;;;;10498329;27;83503;-54
2022/03/03 08:20:04;;;;;;;;;;;9.30;99.90;;;;;;10497586;27;83107;-52
2022/03/03 08:25:08;;;;;;;;;;;9.70;1.00;;;;;;10492664;27;83437;-54
2022/03/03 08:30:09;;;;;;;;;;;10.40;1.00;;;;;;10469838;27;83432;-54
2022/03/03 08:35:18;;;;;;;;;;;10.70;1.00;;;;;;10476581;27;83290;-52
2022/03/03 08:40:18;;;;;;;;;;;11.30;1.00;;;;;;10490727;27;83221;-48
2022/03/03 08:45:19;;;;;;;;;;;11.90;1.00;;;;;;10464547;27;83899;-47
2022/03/03 08:50:21;;;;;;;;;;;12.10;99.90;;;;;;10470921;27;83891;-54
2022/03/03 08:55:22;;;;;;;;;;;12.60;1.00;;;;;;10484962;27;83113;-56
2022/03/03 09:00:22;;;;;;;;;;;12.40;1.00;;;;;;10484223;27;83077;-50
2022/03/03 09:05:23;;;;;;;;;;;12.60;1.00;;;;;;10496086;27;83718;-56
2022/03/03 09:10:24;;;;;;;;;;;12.60;1.00;;;;;;10481350;27;83401;-57
2022/03/03 09:15:25;;;;;;;;;;;12.90;1.00;;;;;;10479144;27;83201;-53
2022/03/03 09:20:26;;;;;;;;;;;13.00;99.90;;;;;;10471998;27;84940;-51
2022/03/03 09:25:27;;;;;;;;;;;13.60;1.00;;;;;;10455420;27;82952;-55
2022/03/03 09:30:28;;;;;;;;;;;14.20;99.90;;;;;;10455498;27;82850;-51
2022/03/03 09:35:29;;;;;;;;;;;13.90;99.90;;;;;;10455056;27;83360;-49
2022/03/03 09:40:29;;;;;;;;;;;13.90;1.00;;;;;;10468049;27;83747;-56
2022/03/03 09:45:30;;;;;;;;;;;13.80;1.00;;;;;;10455816;27;83189;-48
2022/03/03 09:50:31;;;;;;;;;;;14.70;99.90;;;;;;10458042;27;83803;-53
2022/03/03 09:55:32;;;;;;;;;;;14.70;99.90;;;;;;10456099;27;82848;-48
2022/03/03 10:00:36;;;;;;;;;;;15.20;99.90;;;;;;10458537;27;83722;-50
2022/03/03 10:05:38;;;;;;;;;;;15.30;18.00;;;;;;10484845;27;84112;-50
2022/03/03 10:10:42;;;;;;;;;;;16.00;1.00;;;;;;10494914;27;83838;-48
2022/03/03 10:15:44;;;;;;;;;;;16.10;1.00;;;;;;10452171;27;84203;-55
2022/03/03 10:20:44;;;;;;;;;;;16.40;1.00;;;;;;10458505;27;83157;-52
2022/03/03 10:25:45;;;;;;;;;;;16.30;1.00;;;;;;10476124;27;84474;-59
2022/03/03 10:30:47;;;;;;;;;;;16.50;1.00;;;;;;10480108;27;83311;-48
2022/03/03 10:36:00;;;;;;;;;;;16.50;1.00;;;;;;10483281;27;84304;-52
2022/03/03 10:41:01;;;;;;;;;;;16.60;1.00;;;;;;10472690;27;83448;-55
2022/03/03 10:46:02;;;;;;;;;;;16.70;1.00;;;;;;10451307;27;83000;-55
2022/03/03 10:51:06;;;;;;;;;;;16.00;1.00;;;;;;10472445;27;83250;-50
2022/03/03 10:56:08;;;;;;;;;;;16.50;1.00;;;;;;10475743;27;83837;-53
2022/03/03 11:01:08;;;;;;;;;;;16.50;99.90;;;;;;10483926;27;83240;-52
2022/03/03 11:06:09;;;;;;;;;;;16.60;1.00;;;;;;10444976;27;84235;-53
2022/03/03 11:11:10;;;;;;;;;;;16.80;1.00;;;;;;10465495;27;82998;-48
2022/03/03 11:16:11;;;;;;;;;;;16.90;1.00;;;;;;10448111;27;83915;-50
2022/03/03 11:21:13;;;;;;;;;;;16.20;1.00;;;;;;10461326;27;83743;-52
2022/03/03 11:26:20;;;;;;;;;;;16.50;1.00;;;;;;10452679;27;83316;-52
2022/03/03 11:31:21;;;;;;;;;;;17.20;1.00;;;;;;10477509;27;83363;-52
2022/03/03 11:36:21;;;;;;;;;;;17.30;1.00;;;;;;10466490;27;83008;-50
2022/03/03 11:41:42;;;;;;;;;;;17.70;1.00;;;;;;10456580;28;85428;-51
2022/03/03 11:46:50;;;;;;;;;;;17.40;99.90;;;;;;10496524;27;82846;-48
2022/03/03 11:51:51;;;;;;;;;;;17.10;99.90;;;;;;10474702;27;83841;-48
2022/03/03 11:57:04;;;;;;;;;;;17.30;1.00;;;;;;10467963;27;83814;-48
2022/03/03 12:02:04;;;;;;;;;;;18.20;99.90;;;;;;10485975;27;83715;-46
2022/03/03 12:07:25;;;;;;;;;;;18.50;1.00;;;;;;10471419;27;83980;-49
2022/03/03 12:12:29;;;;;;;;;;;18.50;1.00;;;;;;10489653;27;84128;-50
2022/03/03 12:17:33;;;;;;;;;;;18.30;1.00;;;;;;10469223;27;84039;-55
2022/03/03 12:22:33;;;;;;;;;;;17.90;1.00;;;;;;10486083;27;83319;-50
2022/03/03 12:27:34;;;;;;;;;;;17.90;1.00;;;;;;10475023;27;83732;-59
2022/03/03 12:32:39;;;;;;;;;;;18.00;1.00;;;;;;10478826;27;83498;-49
2022/03/03 12:37:44;;;;;;;;;;;17.80;1.00;;;;;;10479054;27;83908;-50
2022/03/03 12:42:46;;;;;;;;;;;18.60;1.00;;;;;;10486400;27;85223;-50
2022/03/03 12:47:53;;;;;;;;;;;18.20;1.00;;;;;;10481452;27;83769;-47
2022/03/03 12:52:54;;;;;;;;;;;18.20;1.00;;;;;;10520423;22;83975;-45
2022/03/03 12:57:55;;;;;;;;;;;17.90;1.00;;;;;;10539088;27;83873;-44
2022/03/03 13:02:58;;;;;;;;;;;17.60;1.00;;;;;;10540045;27;83786;-41
2022/03/03 13:07:59;;;;;;;;;;;18.10;1.00;;;;;;10539448;27;83680;-44
2022/03/03 13:13:00;;;;;;;;;;;18.30;1.00;;;;;;10521496;27;84397;-44
2022/03/03 13:18:02;;;;;;;;;;;17.80;1.00;;;;;;10539737;27;83760;-47
2022/03/03 13:23:03;;;;;;;;;;;18.40;1.00;;;;;;10539461;27;83830;-46
2022/03/03 13:28:04;;;;;;;;;;;18.20;1.00;;;;;;10538627;27;83913;-46
2022/03/03 13:33:05;;;;;;;;;;;17.70;1.00;;;;;;10531134;27;83649;-43
2022/03/03 13:38:06;;;;;;;;;;;17.50;1.00;;;;;;10538953;27;83964;-45
2022/03/03 13:43:07;;;;;;;;;;;17.70;1.00;;;;;;10539437;27;84057;-49
2022/03/03 13:48:13;;;;;;;;;;;17.10;1.00;;;;;;10538446;27;83756;-45
2022/03/03 13:53:15;;;;;;;;;;;16.90;1.00;;;;;;10537866;27;83705;-45
2022/03/03 13:58:23;;;;;;;;;;;17.30;1.00;;;;;;10538422;27;84100;-45
2022/03/03 14:03:37;;;;;;;;;;;16.80;1.00;;;;;;10538898;27;83679;-45
2022/03/03 14:08:40;;;;;;;;;;;16.60;1.00;;;;;;10538683;27;83632;-43
2022/03/03 14:13:43;;;;;;;;;;;15.90;1.00;;;;;;10538454;27;83958;-44
2022/03/03 14:18:44;;;;;;;;;;;15.20;1.00;;;;;;10519259;27;83899;-44
2022/03/03 14:23:45;;;;;;;;;;;14.50;1.00;;;;;;10537654;27;83623;-44
2022/03/03 14:28:46;;;;;;;;;;;13.90;1.00;;;;;;10536959;27;83691;-43
2022/03/03 14:33:47;;;;;;;;;;;13.40;1.00;;;;;;10538012;27;83951;-45
2022/03/03 14:38:47;;;;;;;;;;;13.30;1.00;;;;;;10537559;27;83709;-46
2022/03/03 14:43:48;;;;;;;;;;;13.10;1.00;;;;;;10539042;27;83943;-46
2022/03/03 14:48:48;;;;;;;;;;;13.00;1.00;;;;;;10537147;27;83601;-45
2022/03/03 14:53:49;;;;;;;;;;;13.30;1.00;;;;;;10529120;27;83814;-45
2022/03/03 14:58:49;;;;;;;;;;;13.70;1.00;;;;;;10536858;27;83759;-44
2022/03/03 15:03:50;;;;;;;;;;;13.60;1.00;;;;;;10542845;27;83863;-45
2022/03/03 15:08:50;;;;;;;;;;;13.80;1.00;;;;;;10543279;27;84184;-44
2022/03/03 15:13:51;;;;;;;;;;;14.30;1.00;;;;;;10543349;27;84055;-50
2022/03/03 15:18:51;;;;;;;;;;;14.00;1.00;;;;;;10542417;27;83653;-47
2022/03/03 15:23:52;;;;;;;;;;;13.20;1.00;;;;;;10541737;27;84159;-48
2022/03/03 15:28:52;;;;;;;;;;;12.70;1.00;;;;;;10541510;27;84098;-44
2022/03/03 15:39:13;;;;;;;;;;;12.20;1.00;;;;;;10542475;27;83678;-44
2022/03/03 15:44:16;;;;;;;;;;;11.90;1.00;;;;;;10542247;27;83711;-47
2022/03/03 15:49:17;;;;;;;;;;;11.70;1.00;;;;;;10541074;27;84100;-45
2022/03/03 15:54:18;;;;;;;;;;;11.50;1.00;;;;;;10541468;27;83785;-45
2022/03/03 15:59:19;;;;;;;;;;;11.50;1.00;;;;;;10541244;27;84005;-45
2022/03/03 16:04:19;;;;;;;;;;;11.40;1.00;;;;;;10541547;27;84050;-45
2022/03/03 16:09:21;;;;;;;;;;;11.30;1.00;;;;;;10540947;27;83728;-51
2022/03/03 16:14:22;;;;;;;;;;;11.10;1.00;;;;;;10521046;27;83407;-45
2022/03/03 16:19:22;;;;;;;;;;;11.00;1.00;;;;;;10540431;27;84102;-45
2022/03/03 16:24:23;;;;;;;;;;;10.80;1.00;;;;;;10540407;27;84050;-48
2022/03/03 16:29:23;;;;;;;;;;;10.80;1.00;;;;;;10539299;27;83886;-46
2022/03/03 16:34:25;;;;;;;;;;;10.60;1.00;;;;;;10540902;27;83964;-47
2022/03/03 16:39:25;;;;;;;;;;;10.50;99.90;;;;;;10525093;27;84460;-44
2022/03/03 16:44:26;;;;;;;;;;;10.40;99.90;;;;;;10530864;27;84110;-44
2022/03/03 16:49:27;;;;;;;;;;;10.40;99.90;;;;;;10539889;27;84031;-47
2022/03/03 16:54:27;;;;;;;;;;;10.20;99.90;;;;;;10539289;27;84101;-46
2022/03/03 16:59:28;;;;;;;;;;;10.20;99.90;;;;;;10538665;27;83850;-45
2022/03/03 17:04:28;;;;;;;;;;;10.00;99.90;;;;;;10508621;27;85060;-47
2022/03/03 17:09:29;;;;;;;;;;;9.90;99.90;;;;;;10501344;27;84172;-47
2022/03/03 17:14:31;;;;;;;;;;;9.80;1.00;;;;;;10496834;27;84223;-49
2022/03/03 17:19:32;;;;;;;;;;;9.60;99.90;;;;;;10532002;27;84155;-47
2022/03/03 17:24:32;;;;;;;;;;;9.40;1.00;;;;;;10531964;27;85544;-46
2022/03/03 17:29:33;;;;;;;;;;;9.20;1.00;;;;;;10530272;27;84103;-44
2022/03/03 17:34:34;;;;;;;;;;;9.20;1.00;;;;;;10501640;27;83671;-46
2022/03/03 17:39:34;;;;;;;;;;;8.90;1.00;;;;;;10503020;27;84172;-50
2022/03/03 17:44:35;;;;;;;;;;;8.90;1.00;;;;;;10485360;27;83952;-44
2022/03/03 17:49:36;;;;;;;;;;;8.80;28.80;;;;;;10499992;27;84586;-45
2022/03/03 17:54:37;;;;;;;;;;;8.70;99.90;;;;;;10494641;27;83715;-44
2022/03/03 17:59:38;;;;;;;;;;;8.50;99.90;;;;;;10493589;27;83733;-43
2022/03/03 18:04:38;;;;;;;;;;;8.30;1.00;;;;;;10503535;27;84211;-47
2022/03/03 18:09:39;;;;;;;;;;;8.20;1.00;;;;;;10533102;27;84568;-45
2022/03/03 18:14:40;;;;;;;;;;;8.10;35.70;;;;;;10536817;27;84145;-46
2022/03/03 18:19:40;;;;;;;;;;;8.10;99.90;;;;;;10535851;27;84357;-50
2022/03/03 18:24:41;;;;;;;;;;;7.90;1.00;;;;;;10510071;27;86260;-42
2022/03/03 18:29:41;;;;;;;;;;;7.80;1.00;;;;;;10526430;27;84043;-47
2022/03/03 18:34:43;;;;;;;;;;;7.70;56.70;;;;;;10527403;27;83701;-45
2022/03/03 18:39:44;;;;;;;;;;;7.60;99.90;;;;;;10527667;27;84056;-48
2022/03/03 18:44:44;;;;;;;;;;;7.50;1.00;;;;;;10536453;27;84335;-46
2022/03/03 18:49:45;;;;;;;;;;;7.40;1.00;;;;;;10534054;27;84085;-46
2022/03/03 18:54:46;;;;;;;;;;;7.30;99.90;;;;;;10555654;22;84257;-56
2022/03/03 18:59:46;;;;;;;;;;;7.30;1.00;;;;;;10535108;27;84112;-49
2022/03/03 19:04:47;;;;;;;;;;;7.20;1.00;;;;;;10533878;27;84064;-48
2022/03/03 19:09:48;;;;;;;;;;;7.10;1.00;;;;;;10533338;27;84048;-51
2022/03/03 19:14:48;;;;;;;;;;;7.00;99.90;;;;;;10534869;27;83614;-49
2022/03/03 19:19:49;;;;;;;;;;;6.90;99.90;;;;;;10492533;27;83976;-53
2022/03/03 19:24:50;;;;;;;;;;;6.80;1.00;;;;;;10504159;27;84188;-51
2022/03/03 19:29:50;;;;;;;;;;;6.80;1.00;;;;;;10520055;27;83328;-50
2022/03/03 19:34:51;;;;;;;;;;;6.70;1.00;;;;;;10508640;27;84102;-53
2022/03/03 19:39:52;;;;;;;;;;;6.60;69.40;;;;;;10510978;27;85554;-52
2022/03/03 19:44:53;;;;;;;;;;;6.60;99.90;;;;;;10493401;27;83545;-53
2022/03/03 19:49:53;;;;;;;;;;;6.50;99.90;;;;;;10519972;27;84841;-52
2022/03/03 19:54:54;;;;;;;;;;;6.40;1.00;;;;;;10507185;27;85492;-52
2022/03/03 19:59:55;;;;;;;;;;;6.30;1.00;;;;;;10517946;27;86478;-48
2022/03/03 20:04:55;;;;;;;;;;;6.20;1.00;;;;;;10526805;27;84531;-52
2022/03/03 20:15:15;;;;;;;;;;;6.10;1.00;;;;;;10525770;27;83909;-50
2022/03/03 20:20:17;;;;;;;;;;;6.00;1.00;;;;;;10528244;27;84100;-51
2022/03/03 20:25:17;;;;;;;;;;;5.90;1.00;;;;;;10517842;27;84066;-49
2022/03/03 20:30:18;;;;;;;;;;;5.90;68.60;;;;;;10514388;27;83779;-49
2022/03/03 20:35:18;;;;;;;;;;;5.80;99.90;;;;;;10517371;27;83819;-48
2022/03/03 20:40:20;;;;;;;;;;;5.70;99.90;;;;;;10522537;27;83750;-50
2022/03/03 20:45:21;;;;;;;;;;;5.70;99.90;;;;;;10518116;27;85175;-50
2022/03/03 20:50:21;;;;;;;;;;;5.60;99.90;;;;;;10566036;27;84247;-48
2022/03/03 20:55:22;;;;;;;;;;;5.60;99.90;;;;;;10534869;27;83849;-49
2022/03/03 21:00:22;;;;;;;;;;;5.40;99.90;;;;;;10535716;27;84196;-52
2022/03/03 21:05:23;;;;;;;;;;;5.40;99.90;;;;;;10506403;27;83992;-50
2022/03/03 21:10:24;;;;;;;;;;;5.30;99.90;;;;;;10521974;27;83649;-50
2022/03/03 21:15:25;;;;;;;;;;;5.30;99.90;;;;;;10518606;27;83693;-52
2022/03/03 21:20:25;;;;;;;;;;;5.20;1.00;;;;;;10520289;27;83460;-49
2022/03/03 21:25:26;;;;;;;;;;;5.20;1.00;;;;;;10517499;27;83830;-53
2022/03/03 21:30:28;;;;;;;;;;;5.10;1.00;;;;;;10516343;27;83275;-48
2022/03/03 21:35:28;;;;;;;;;;;5.00;1.00;;;;;;10517470;27;83909;-49
2022/03/03 21:40:29;;;;;;;;;;;4.90;1.00;;;;;;10522233;27;83881;-49
2022/03/03 21:45:29;;;;;;;;;;;4.90;1.00;;;;;;10517850;27;83695;-55
2022/03/03 21:50:30;;;;;;;;;;;4.90;1.00;;;;;;10528248;27;83723;-49
2022/03/03 21:55:31;;;;;;;;;;;4.80;1.00;;;;;;10537592;27;83939;-53
2022/03/03 22:00:33;;;;;;;;;;;4.80;1.00;;;;;;10546653;27;83369;-53
2022/03/03 22:05:33;;;;;;;;;;;4.70;1.00;;;;;;10510202;27;85104;-53
2022/03/03 22:10:34;;;;;;;;;;;4.60;1.00;;;;;;10538698;27;83912;-50
2022/03/03 22:15:35;;;;;;;;;;;4.50;1.00;;;;;;10522221;27;83789;-50
2022/03/03 22:20:35;;;;;;;;;;;4.50;1.00;;;;;;10535681;27;84061;-49
2022/03/03 22:25:36;;;;;;;;;;;4.40;1.00;;;;;;10510807;27;84138;-49
2022/03/03 22:30:37;;;;;;;;;;;4.40;1.00;;;;;;10512495;27;83874;-51
2022/03/03 22:35:37;;;;;;;;;;;4.30;1.00;;;;;;10528468;27;83373;-52
2022/03/03 22:40:38;;;;;;;;;;;4.30;1.00;;;;;;10517293;27;83322;-53
2022/03/03 22:45:39;;;;;;;;;;;4.20;1.00;;;;;;10520304;27;84201;-49
2022/03/03 22:55:58;;;;;;;;;;;4.00;1.00;;;;;;10521187;27;83269;-49
2022/03/03 23:01:02;;;;;;;;;;;4.00;1.00;;;;;;10495426;27;86340;-49
2022/03/03 23:06:06;;;;;;;;;;;4.00;1.00;;;;;;10513069;27;84929;-51
2022/03/03 23:11:06;;;;;;;;;;;4.00;1.00;;;;;;10530344;27;83529;-53
2022/03/03 23:16:07;;;;;;;;;;;3.90;1.00;;;;;;10492598;27;85097;-54
2022/03/03 23:21:08;;;;;;;;;;;3.80;1.00;;;;;;10520303;27;84026;-52
2022/03/03 23:26:14;;;;;;;;;;;3.70;1.00;;;;;;10520522;27;83393;-49
2022/03/03 23:31:15;;;;;;;;;;;3.60;1.00;;;;;;10504329;27;84544;-49
2022/03/03 23:36:16;;;;;;;;;;;3.50;1.00;;;;;;10502116;27;84433;-49
2022/03/03 23:41:18;;;;;;;;;;;3.50;1.00;;;;;;10518459;27;83923;-52
2022/03/03 23:46:18;;;;;;;;;;;3.50;1.00;;;;;;10540238;27;83368;-49
2022/03/03 23:51:24;;;;;;;;;;;3.40;1.00;;;;;;10517304;27;84303;-49
2022/03/03 23:56:25;;;;;;;;;;;3.30;1.00;;;;;;10506777;27;85520;-48
